Time;durP1;ratioP1;P1;durP2;ratioP2;P2;SDS_P1;SDS_P2;PMS_P1;PMS_P2;Temp;Humidity;BMP_temperature;BMP_pressure;BME280_temperature;BME280_humidity;BME280_pressure;Samples;Min_cycle;Max_cycle;Signal;HPM_P1;HPM_P2
2022/01/05 08:54:38;;;;;;;13.45;2.85;;;1.20;92.70;;;;;;5069347;28;20762;-51
2022/01/05 08:57:05;;;;;;;21.10;3.97;;;1.20;92.70;;;;;;5048797;28;20049;-47
2022/01/05 08:59:32;;;;;;;16.58;3.75;;;1.30;92.50;;;;;;5052201;28;20045;-50
2022/01/05 09:01:59;;;;;;;14.73;3.00;;;1.40;92.20;;;;;;5049608;28;20059;-52
2022/01/05 09:04:26;;;;;;;16.02;3.47;;;1.50;92.10;;;;;;5049265;28;20093;-49
2022/01/05 09:06:53;;;;;;;19.13;3.40;;;1.60;91.80;;;;;;5049555;28;20499;-49
2022/01/05 09:09:20;;;;;;;16.27;3.33;;;1.60;91.70;;;;;;5049524;28;20040;-49
2022/01/05 09:11:47;;;;;;;15.88;3.10;;;1.70;91.50;;;;;;5049624;28;20037;-47
2022/01/05 09:14:13;;;;;;;16.60;3.65;;;1.80;91.40;;;;;;5047869;28;20469;-51
2022/01/05 09:16:40;;;;;;;14.15;3.55;;;1.80;91.30;;;;;;5051628;28;20056;-49
2022/01/05 09:19:07;;;;;;;15.10;2.80;;;1.90;91.10;;;;;;5049329;28;20076;-54
2022/01/05 09:21:34;;;;;;;18.45;3.42;;;1.90;90.90;;;;;;5049253;28;20040;-51
2022/01/05 09:24:01;;;;;;;22.92;4.00;;;2.00;90.80;;;;;;5049367;28;20045;-52
2022/01/05 09:26:28;;;;;;;14.80;3.13;;;2.00;90.70;;;;;;5049248;28;20063;-46
2022/01/05 09:28:55;;;;;;;18.42;3.28;;;2.10;90.50;;;;;;5054146;28;20064;-48
2022/01/05 09:31:22;;;;;;;14.23;2.97;;;2.10;90.60;;;;;;5049314;28;20085;-54
2022/01/05 09:33:49;;;;;;;11.13;2.88;;;2.10;90.50;;;;;;5048981;28;20389;-45
2022/01/05 09:36:29;;;;;;;11.65;3.10;;;2.10;90.40;;;;;;5049139;28;20048;-51
2022/01/05 09:41:57;;;;;;;16.23;3.65;;;2.20;90.30;;;;;;5049171;28;20106;-51
2022/01/05 09:44:24;;;;;;;17.52;3.70;;;2.20;90.20;;;;;;5048709;28;20500;-48
2022/01/05 09:46:50;;;;;;;12.70;2.78;;;2.30;90.10;;;;;;5054427;28;20435;-49
2022/01/05 09:49:17;;;;;;;21.38;2.97;;;2.30;90.00;;;;;;5048980;28;20046;-49
2022/01/05 09:51:44;;;;;;;14.15;2.90;;;2.40;90.10;;;;;;5048746;28;20037;-48
2022/01/05 09:54:12;;;;;;;17.77;3.15;;;2.40;90.00;;;;;;5048402;28;20056;-45
2022/01/05 09:56:55;;;;;;;11.52;2.95;;;2.50;90.00;;;;;;5049025;28;20061;-48
2022/01/05 09:59:21;;;;;;;11.52;3.03;;;2.60;89.20;;;;;;5048819;28;20041;-50
2022/01/05 10:01:48;;;;;;;16.85;3.40;;;2.70;88.30;;;;;;5046472;28;20055;-48
2022/01/05 10:04:16;;;;;;;12.63;2.95;;;2.70;88.80;;;;;;5045103;28;20144;-47
2022/01/05 10:06:43;;;;;;;14.68;3.63;;;2.80;88.10;;;;;;5035091;28;20062;-48
2022/01/05 10:09:09;;;;;;;13.10;3.20;;;2.90;87.70;;;;;;5033148;28;20038;-47
2022/01/05 10:11:36;;;;;;;11.80;3.00;;;2.90;86.70;;;;;;5032882;28;20042;-52
2022/01/05 10:14:03;;;;;;;15.20;3.08;;;3.00;86.90;;;;;;5035212;28;20128;-47
2022/01/05 10:16:30;;;;;;;16.30;3.85;;;2.90;87.80;;;;;;5035716;28;20481;-50
2022/01/05 10:18:57;;;;;;;15.55;3.60;;;3.00;87.60;;;;;;5035110;28;20043;-55
2022/01/05 10:21:24;;;;;;;14.13;3.10;;;3.00;87.10;;;;;;5035260;28;20049;-52
2022/01/05 10:23:51;;;;;;;13.45;3.88;;;3.00;87.80;;;;;;5035043;28;20042;-49
2022/01/05 10:26:17;;;;;;;12.30;2.83;;;3.00;87.20;;;;;;5034246;28;20083;-50
2022/01/05 10:28:47;;;;;;;13.05;3.13;;;3.00;87.50;;;;;;5034770;28;20048;-51
2022/01/05 10:31:14;;;;;;;11.60;3.05;;;3.10;87.30;;;;;;5034999;28;20449;-51
2022/01/05 10:33:41;;;;;;;13.60;3.42;;;3.10;87.40;;;;;;5034961;28;20473;-48
2022/01/05 10:36:08;;;;;;;16.98;3.17;;;3.10;87.10;;;;;;5033841;28;20547;-46
2022/01/05 10:38:34;;;;;;;15.00;3.40;;;3.10;86.80;;;;;;5033677;28;20337;-50
2022/01/05 10:41:01;;;;;;;15.40;3.20;;;3.20;86.70;;;;;;5034102;28;20073;-51
2022/01/05 10:43:28;;;;;;;13.85;3.67;;;3.20;86.50;;;;;;5034436;28;20056;-53
2022/01/05 10:45:55;;;;;;;16.13;3.17;;;3.30;86.00;;;;;;5034649;28;20041;-52
2022/01/05 10:48:24;;;;;;;11.27;3.25;;;3.30;86.00;;;;;;5036674;28;20045;-46
2022/01/05 10:50:51;;;;;;;10.73;2.72;;;3.30;86.30;;;;;;5034302;28;20640;-47
2022/01/05 10:53:22;;;;;;;16.77;3.55;;;3.40;85.50;;;;;;5033930;28;20413;-49
2022/01/05 10:55:49;;;;;;;16.55;3.92;;;3.40;85.60;;;;;;5034051;28;20053;-56
2022/01/05 10:58:16;;;;;;;16.88;3.00;;;3.50;85.40;;;;;;5033998;28;20562;-51
2022/01/05 11:00:42;;;;;;;16.65;3.15;;;3.50;84.90;;;;;;5034018;28;20132;-48
2022/01/05 11:03:09;;;;;;;16.58;3.92;;;3.60;85.30;;;;;;5034008;28;20042;-51
2022/01/05 11:05:37;;;;;;;12.88;3.17;;;3.60;84.00;;;;;;5033942;28;20091;-49
2022/01/05 11:08:04;;;;;;;17.17;4.20;;;3.70;84.90;;;;;;5033384;28;20040;-45
2022/01/05 11:10:31;;;;;;;21.13;3.47;;;3.70;84.30;;;;;;5034071;28;20072;-47
2022/01/05 11:13:02;;;;;;;11.25;3.05;;;3.80;83.80;;;;;;5033655;28;20041;-47
2022/01/05 11:15:30;;;;;;;13.40;2.95;;;3.90;83.50;;;;;;5032264;28;20060;-50
2022/01/05 11:17:57;;;;;;;10.25;2.95;;;3.90;82.90;;;;;;5038569;28;20073;-49
2022/01/05 11:20:24;;;;;;;11.95;3.63;;;4.00;83.00;;;;;;5033671;28;20042;-50
2022/01/05 11:22:51;;;;;;;15.82;3.33;;;4.00;82.50;;;;;;5033408;28;20037;-51
2022/01/05 11:25:17;;;;;;;12.15;3.33;;;4.10;82.40;;;;;;5032729;28;20052;-52
2022/01/05 11:27:44;;;;;;;12.63;2.78;;;4.10;82.10;;;;;;5032068;28;20037;-47
2022/01/05 11:30:13;;;;;;;12.13;2.70;;;4.10;81.60;;;;;;5032858;28;20488;-50
2022/01/05 11:32:40;;;;;;;11.05;2.65;;;4.20;81.50;;;;;;5032607;28;20103;-48
2022/01/05 11:35:07;;;;;;;13.82;3.25;;;4.20;81.60;;;;;;5032368;28;20116;-49
2022/01/05 11:37:37;;;;;;;14.77;2.97;;;4.20;81.90;;;;;;5031672;28;20475;-50
2022/01/05 11:40:03;;;;;;;14.63;2.90;;;4.30;82.00;;;;;;5031853;28;20041;-51
2022/01/05 11:42:30;;;;;;;17.25;3.10;;;4.30;81.80;;;;;;5032145;28;20125;-47
2022/01/05 11:44:57;;;;;;;13.65;3.03;;;4.40;81.00;;;;;;5031736;28;20045;-46
2022/01/05 11:47:24;;;;;;;12.10;2.72;;;4.40;81.70;;;;;;5033117;28;20045;-50
2022/01/05 11:49:52;;;;;;;12.70;3.55;;;4.50;81.20;;;;;;5030614;28;20132;-49
2022/01/05 11:52:19;;;;;;;15.10;3.00;;;4.50;80.90;;;;;;5033182;28;20069;-52
2022/01/05 11:54:46;;;;;;;17.63;3.15;;;4.50;80.80;;;;;;5033423;28;20076;-49
2022/01/05 11:57:12;;;;;;;12.60;3.00;;;4.60;80.40;;;;;;5033364;28;20548;-50
2022/01/05 11:59:39;;;;;;;12.00;3.42;;;4.60;80.30;;;;;;5033212;28;20037;-48
2022/01/05 12:02:06;;;;;;;11.55;2.78;;;4.70;79.70;;;;;;5033233;28;20041;-47
2022/01/05 12:04:34;;;;;;;17.40;3.05;;;4.70;79.30;;;;;;5031881;28;20108;-48
2022/01/05 12:07:01;;;;;;;15.85;3.58;;;4.80;78.50;;;;;;5032977;28;20051;-49
2022/01/05 12:09:29;;;;;;;15.93;2.97;;;4.80;79.50;;;;;;5033112;28;20041;-49
2022/01/05 12:12:00;;;;;;;16.73;3.10;;;4.90;78.50;;;;;;5033128;28;20045;-46
2022/01/05 12:14:27;;;;;;;14.88;3.25;;;4.90;78.80;;;;;;5032864;28;20041;-50
2022/01/05 12:16:54;;;;;;;16.05;3.33;;;4.90;78.10;;;;;;5037267;28;20163;-48
2022/01/05 12:19:20;;;;;;;15.45;3.40;;;5.00;78.20;;;;;;5033486;28;20461;-46
2022/01/05 12:21:47;;;;;;;16.60;2.90;;;5.00;78.10;;;;;;5032934;28;20368;-46
2022/01/05 12:24:14;;;;;;;13.40;2.50;;;5.10;78.20;;;;;;5032870;28;20048;-50
2022/01/05 12:26:41;;;;;;;22.88;2.90;;;5.10;78.40;;;;;;5033019;28;20489;-47
2022/01/05 12:29:08;;;;;;;15.57;3.80;;;5.20;78.10;;;;;;5032549;28;20037;-44
2022/01/05 12:31:34;;;;;;;12.07;2.83;;;5.20;77.60;;;;;;5032933;28;20037;-46
2022/01/05 12:34:01;;;;;;;14.50;2.80;;;5.30;77.60;;;;;;5032959;28;20048;-47
2022/01/05 12:36:28;;;;;;;13.90;3.05;;;5.30;76.90;;;;;;5032816;28;20472;-45
2022/01/05 12:38:55;;;;;;;16.38;3.47;;;5.30;76.70;;;;;;5032796;28;20041;-46
2022/01/05 12:41:22;;;;;;;17.85;2.75;;;5.30;76.30;;;;;;5032793;28;20595;-54
2022/01/05 12:43:49;;;;;;;13.02;3.15;;;5.40;76.20;;;;;;5032520;28;20436;-44
2022/01/05 12:46:16;;;;;;;12.88;2.80;;;5.40;76.70;;;;;;5036207;28;20048;-45
2022/01/05 12:48:43;;;;;;;11.52;2.92;;;5.50;76.20;;;;;;5034985;28;20046;-46
2022/01/05 12:51:10;;;;;;;15.82;3.88;;;5.40;75.80;;;;;;5031300;28;20045;-48
2022/01/05 12:53:37;;;;;;;12.52;3.15;;;5.50;75.50;;;;;;5032475;28;20469;-49
2022/01/05 12:56:03;;;;;;;14.00;4.00;;;5.50;75.40;;;;;;5032308;28;20042;-49
2022/01/05 12:58:30;;;;;;;12.40;2.80;;;5.50;75.50;;;;;;5032574;28;20042;-47
2022/01/05 13:00:57;;;;;;;16.20;2.75;;;5.60;74.90;;;;;;5032394;28;20047;-47
2022/01/05 13:03:24;;;;;;;16.67;3.60;;;5.60;75.70;;;;;;5031226;28;20052;-50
2022/01/05 13:05:51;;;;;;;15.30;3.40;;;5.60;75.30;;;;;;5032562;28;20572;-47
2022/01/05 13:08:18;;;;;;;14.23;2.85;;;5.60;74.70;;;;;;5032413;28;20041;-46
2022/01/05 13:10:45;;;;;;;10.00;2.70;;;5.70;76.10;;;;;;5032201;28;20113;-50
2022/01/05 13:13:12;;;;;;;9.30;2.65;;;5.70;74.90;;;;;;5032392;28;20042;-45
2022/01/05 13:15:39;;;;;;;17.38;2.60;;;5.70;75.10;;;;;;5031220;28;20504;-52
2022/01/05 13:18:05;;;;;;;15.18;2.92;;;5.70;75.00;;;;;;5032894;28;20476;-48
2022/01/05 13:20:32;;;;;;;12.55;2.83;;;5.70;74.20;;;;;;5029663;28;20052;-51
2022/01/05 13:22:59;;;;;;;14.02;2.80;;;5.70;74.00;;;;;;5032370;28;20404;-52
2022/01/05 13:25:27;;;;;;;11.70;2.47;;;5.80;74.30;;;;;;5032205;28;20048;-51
2022/01/05 13:27:54;;;;;;;15.63;2.67;;;5.80;74.90;;;;;;5032149;28;20042;-44
2022/01/05 13:30:21;;;;;;;9.93;2.70;;;5.80;74.30;;;;;;5032412;28;20039;-46
2022/01/05 13:32:48;;;;;;;9.30;2.63;;;5.80;74.60;;;;;;5032301;28;20115;-47
2022/01/05 13:35:17;;;;;;;14.63;2.72;;;5.80;73.70;;;;;;5036931;28;20051;-45
2022/01/05 13:37:44;;;;;;;12.93;2.60;;;5.80;74.00;;;;;;5031717;28;20061;-52
2022/01/05 13:40:11;;;;;;;17.20;3.22;;;5.80;73.90;;;;;;5033234;28;20083;-47
2022/01/05 13:42:38;;;;;;;10.93;3.03;;;5.80;74.10;;;;;;5036042;28;20562;-50
2022/01/05 13:45:05;;;;;;;9.82;2.20;;;5.80;74.60;;;;;;5036049;28;20406;-50
2022/01/05 13:47:32;;;;;;;14.35;2.95;;;5.90;74.50;;;;;;5035931;28;20033;-48
2022/01/05 13:49:58;;;;;;;12.57;3.03;;;5.90;74.80;;;;;;5035986;28;20038;-47
2022/01/05 13:52:25;;;;;;;11.00;2.92;;;5.90;74.70;;;;;;5035263;28;20041;-46
2022/01/05 13:54:52;;;;;;;9.32;2.47;;;5.90;74.00;;;;;;5039552;28;20063;-49
2022/01/05 13:57:19;;;;;;;17.02;3.55;;;5.90;74.00;;;;;;5035775;28;20045;-49
2022/01/05 13:59:46;;;;;;;11.73;2.67;;;5.80;73.40;;;;;;5034916;28;20045;-46
2022/01/05 14:02:13;;;;;;;11.50;2.90;;;5.80;73.40;;;;;;5034360;28;20049;-52
2022/01/05 14:04:40;;;;;;;12.05;2.60;;;5.80;73.30;;;;;;5032757;28;20036;-47
2022/01/05 14:07:08;;;;;;;8.88;2.55;;;5.80;73.20;;;;;;5034949;28;20045;-52
2022/01/05 14:09:35;;;;;;;13.30;2.55;;;5.70;72.20;;;;;;5034733;28;20042;-48
2022/01/05 14:12:01;;;;;;;9.77;2.20;;;5.70;73.50;;;;;;5034005;28;20473;-47
2022/01/05 14:14:28;;;;;;;14.15;3.13;;;5.70;72.70;;;;;;5035131;28;20077;-49
2022/01/05 14:16:55;;;;;;;7.88;1.98;;;5.70;72.40;;;;;;5035011;28;20068;-48
2022/01/05 14:19:22;;;;;;;12.30;2.55;;;5.70;73.00;;;;;;5033751;28;20041;-48
2022/01/05 14:21:49;;;;;;;13.40;2.92;;;5.70;72.80;;;;;;5034853;28;20042;-53
2022/01/05 14:24:16;;;;;;;10.75;2.97;;;5.60;72.60;;;;;;5034723;28;20396;-46
2022/01/05 14:26:43;;;;;;;9.90;2.95;;;5.60;72.60;;;;;;5034772;28;20076;-51
2022/01/05 14:29:09;;;;;;;12.98;2.60;;;5.60;72.70;;;;;;5034992;28;20038;-52
2022/01/05 14:31:42;;;;;;;15.98;3.85;;;5.60;72.70;;;;;;5034924;28;20460;-47
2022/01/05 14:34:09;;;;;;;13.52;2.92;;;5.60;72.10;;;;;;5034471;28;20041;-44
2022/01/05 14:36:38;;;;;;;10.13;3.35;;;5.60;72.70;;;;;;5034626;28;20135;-49
2022/01/05 14:39:05;;;;;;;9.20;2.60;;;5.60;72.80;;;;;;5034622;28;20046;-45
2022/01/05 14:41:32;;;;;;;10.80;2.90;;;5.70;73.40;;;;;;5034648;28;20458;-47
2022/01/05 14:43:59;;;;;;;14.63;2.58;;;5.60;73.50;;;;;;5034392;28;20041;-46
2022/01/05 14:46:27;;;;;;;16.13;2.42;;;5.60;73.60;;;;;;5034350;28;20046;-45
2022/01/05 14:48:54;;;;;;;11.82;3.33;;;5.70;73.60;;;;;;5034346;28;20046;-45
2022/01/05 14:51:21;;;;;;;11.32;2.55;;;5.60;73.60;;;;;;5034431;28;20120;-47
2022/01/05 14:53:48;;;;;;;8.57;2.28;;;5.60;73.90;;;;;;5034605;28;20042;-51
2022/01/05 14:56:15;;;;;;;9.70;2.50;;;5.60;74.10;;;;;;5036579;28;20044;-45
2022/01/05 14:58:41;;;;;;;11.15;2.67;;;5.60;74.00;;;;;;5034295;28;20144;-47
2022/01/05 15:01:08;;;;;;;13.18;3.20;;;5.60;74.50;;;;;;5034348;28;20044;-49
2022/01/05 15:03:35;;;;;;;10.02;3.38;;;5.60;74.90;;;;;;5033652;28;20037;-53
2022/01/05 15:06:02;;;;;;;10.52;2.92;;;5.60;75.30;;;;;;5035392;28;20033;-46
2022/01/05 15:08:29;;;;;;;12.68;2.45;;;5.50;75.30;;;;;;5034241;28;20522;-49
2022/01/05 15:10:56;;;;;;;12.32;2.90;;;5.50;75.50;;;;;;5034256;28;20079;-50
2022/01/05 15:13:22;;;;;;;13.13;2.60;;;5.50;74.90;;;;;;5034009;28;20512;-47
2022/01/05 15:15:49;;;;;;;16.85;3.78;;;5.50;74.00;;;;;;5034223;28;20045;-47
2022/01/05 15:18:16;;;;;;;12.82;3.25;;;5.50;73.50;;;;;;5033906;28;20373;-50
2022/01/05 15:20:43;;;;;;;8.60;2.63;;;5.50;73.20;;;;;;5032711;28;20045;-47
2022/01/05 15:23:09;;;;;;;11.63;2.67;;;5.50;72.00;;;;;;5033936;28;20108;-54
2022/01/05 15:25:36;;;;;;;9.30;2.47;;;5.50;72.60;;;;;;5032546;28;20131;-46
2022/01/05 15:28:03;;;;;;;9.45;2.38;;;5.50;72.70;;;;;;5033898;28;20404;-51
2022/01/05 15:30:30;;;;;;;13.57;2.80;;;5.40;73.10;;;;;;5032474;28;20485;-49
2022/01/05 15:32:57;;;;;;;12.85;3.42;;;5.40;72.90;;;;;;5033731;28;20044;-47
2022/01/05 15:35:23;;;;;;;11.38;2.90;;;5.40;73.40;;;;;;5032174;28;20049;-47
2022/01/05 15:37:50;;;;;;;13.65;3.47;;;5.40;73.60;;;;;;5027200;28;20052;-45
2022/01/05 15:40:19;;;;;;;15.45;3.30;;;5.40;74.40;;;;;;5027321;28;20103;-47
2022/01/05 15:42:46;;;;;;;13.50;2.70;;;5.30;74.80;;;;;;5027315;28;20041;-52
2022/01/05 15:45:13;;;;;;;12.80;4.82;;;5.40;75.20;;;;;;5026930;28;20469;-46
2022/01/05 15:47:39;;;;;;;18.30;4.95;;;5.30;75.40;;;;;;5026865;28;20053;-52
2022/01/05 15:50:06;;;;;;;13.38;3.97;;;5.30;75.50;;;;;;5033199;28;20112;-49
2022/01/05 15:52:33;;;;;;;14.75;4.07;;;5.30;75.90;;;;;;5032367;28;20532;-48
2022/01/05 15:55:05;;;;;;;8.57;2.78;;;5.30;75.90;;;;;;5032541;28;20132;-46
2022/01/05 16:02:47;;;;;;;12.25;3.42;;;5.30;76.10;;;;;;5032445;28;20076;-50
2022/01/05 16:05:14;;;;;;;12.65;2.97;;;5.30;76.20;;;;;;5032853;28;20514;-45
2022/01/05 16:07:40;;;;;;;10.50;3.42;;;5.30;76.30;;;;;;5033428;28;20469;-50
2022/01/05 16:10:07;;;;;;;12.18;3.33;;;5.30;76.10;;;;;;5032125;28;20038;-48
2022/01/05 16:12:34;;;;;;;16.50;4.90;;;5.30;75.90;;;;;;5033340;28;20049;-48
2022/01/05 16:15:01;;;;;;;13.23;4.30;;;5.30;76.60;;;;;;5033409;28;20045;-46
2022/01/05 16:17:28;;;;;;;10.65;3.72;;;5.30;76.40;;;;;;5033110;28;20046;-45
2022/01/05 16:19:55;;;;;;;16.17;6.40;;;5.20;76.40;;;;;;5033288;28;20049;-48
2022/01/05 16:22:21;;;;;;;17.50;5.78;;;5.20;76.40;;;;;;5033254;28;20065;-53
2022/01/05 16:24:48;;;;;;;16.73;6.05;;;5.20;76.30;;;;;;5034221;28;20052;-47
2022/01/05 16:27:15;;;;;;;12.80;4.88;;;5.20;76.60;;;;;;5037331;28;20069;-51
2022/01/05 16:29:42;;;;;;;10.32;3.67;;;5.10;76.60;;;;;;5033159;28;20034;-45
2022/01/05 16:32:08;;;;;;;7.07;3.08;;;5.10;77.00;;;;;;5031844;28;20637;-48
2022/01/05 16:34:37;;;;;;;13.13;3.08;;;5.00;77.20;;;;;;5032911;28;20045;-49
2022/01/05 16:37:04;;;;;;;10.20;2.78;;;5.00;77.10;;;;;;5032897;28;20041;-45
2022/01/05 16:39:31;;;;;;;12.65;3.38;;;4.90;77.70;;;;;;5034172;28;20043;-48
2022/01/05 16:41:58;;;;;;;15.82;3.45;;;4.90;78.20;;;;;;5032567;28;20065;-50
2022/01/05 16:44:25;;;;;;;14.40;3.08;;;4.80;78.50;;;;;;5032845;28;20045;-46
2022/01/05 16:46:52;;;;;;;15.82;3.58;;;4.80;78.80;;;;;;5032666;28;20079;-44
2022/01/05 16:49:18;;;;;;;10.93;3.50;;;4.70;79.00;;;;;;5032837;28;20438;-46
2022/01/05 16:51:45;;;;;;;10.27;3.53;;;4.70;79.40;;;;;;5032850;28;20052;-48
2022/01/05 16:54:15;;;;;;;15.55;3.30;;;4.70;79.60;;;;;;5035956;28;20057;-48
2022/01/05 17:02:03;;;;;;;12.57;3.40;;;4.50;80.40;;;;;;5032628;28;20052;-48
2022/01/05 17:04:30;;;;;;;11.02;4.00;;;4.50;80.60;;;;;;5034203;28;20044;-50
2022/01/05 17:06:57;;;;;;;12.45;4.07;;;4.50;80.80;;;;;;5032726;28;20404;-52
2022/01/05 17:09:24;;;;;;;13.25;4.63;;;4.50;81.10;;;;;;5033880;28;20033;-46
2022/01/05 17:11:51;;;;;;;16.60;4.00;;;4.40;81.20;;;;;;5032833;28;20448;-51
2022/01/05 17:14:18;;;;;;;14.38;4.13;;;4.40;81.60;;;;;;5032437;28;20410;-45
2022/01/05 17:16:44;;;;;;;23.23;7.57;;;4.40;81.80;;;;;;5036469;28;20124;-47
2022/01/05 17:19:11;;;;;;;17.77;5.45;;;4.40;81.90;;;;;;5041909;28;20050;-47
2022/01/05 17:21:38;;;;;;;16.75;5.95;;;4.30;82.10;;;;;;5036727;28;20041;-48
2022/01/05 17:24:06;;;;;;;13.07;3.63;;;4.30;82.40;;;;;;5036477;28;20182;-50
2022/01/05 17:26:33;;;;;;;11.20;4.20;;;4.20;82.40;;;;;;5036451;28;20483;-49
2022/01/05 17:29:00;;;;;;;17.60;5.25;;;4.20;82.70;;;;;;5035213;28;20075;-45
2022/01/05 17:31:27;;;;;;;16.40;6.30;;;4.10;82.90;;;;;;5035648;28;20037;-47
2022/01/05 17:33:54;;;;;;;19.52;4.80;;;4.10;83.20;;;;;;5039880;28;20033;-46
2022/01/05 17:36:20;;;;;;;14.55;4.28;;;4.00;83.60;;;;;;5036244;28;20046;-45
2022/01/05 17:38:47;;;;;;;15.18;5.03;;;4.00;83.80;;;;;;5038831;28;20056;-46
2022/01/05 17:41:14;;;;;;;10.77;3.80;;;3.90;84.40;;;;;;5036333;28;20042;-50
2022/01/05 17:43:41;;;;;;;12.75;3.83;;;3.80;84.40;;;;;;5031087;28;20381;-47
2022/01/05 17:46:10;;;;;;;13.13;4.65;;;3.80;84.90;;;;;;5038468;28;20037;-48
2022/01/05 17:48:37;;;;;;;51.80;37.47;;;3.80;84.90;;;;;;5035427;28;20571;-47
2022/01/05 17:51:03;;;;;;;17.63;8.82;;;3.70;85.10;;;;;;5034338;28;20112;-47
2022/01/05 17:53:32;;;;;;;16.73;5.22;;;3.70;85.10;;;;;;5035474;28;20049;-51
2022/01/05 17:55:59;;;;;;;13.98;5.32;;;3.60;85.40;;;;;;5039086;28;20057;-49
2022/01/05 17:58:25;;;;;;;9.48;4.68;;;3.60;85.50;;;;;;5035599;28;20067;-49
2022/01/05 18:00:52;;;;;;;19.25;5.25;;;3.60;85.90;;;;;;5035309;28;20499;-45
2022/01/05 18:03:19;;;;;;;17.20;5.38;;;3.50;86.10;;;;;;5035623;28;20045;-47
2022/01/05 18:05:46;;;;;;;25.70;7.88;;;3.50;86.60;;;;;;5035420;28;20432;-48
2022/01/05 18:08:13;;;;;;;48.47;17.38;;;3.40;86.80;;;;;;5040541;28;20044;-50
2022/01/05 18:10:40;;;;;;;63.33;24.33;;;3.40;86.90;;;;;;5035513;28;20148;-54
2022/01/05 18:13:07;;;;;;;56.30;22.40;;;3.40;87.20;;;;;;5035409;28;20447;-48
2022/01/05 18:15:34;;;;;;;46.40;18.25;;;3.30;87.50;;;;;;5035497;28;20052;-49
2022/01/05 18:18:00;;;;;;;42.25;17.23;;;3.30;87.80;;;;;;5035299;28;20050;-45
2022/01/05 18:20:29;;;;;;;35.83;15.10;;;3.30;87.80;;;;;;5035439;28;20053;-47
2022/01/05 18:22:55;;;;;;;29.52;12.90;;;3.30;88.00;;;;;;5035812;28;20051;-51
2022/01/05 18:25:24;;;;;;;26.00;9.73;;;3.30;88.10;;;;;;5034658;28;20037;-52
2022/01/05 18:27:51;;;;;;;21.65;7.85;;;3.20;88.50;;;;;;5035173;28;20129;-50
2022/01/05 18:30:18;;;;;;;18.15;7.30;;;3.20;88.80;;;;;;5035094;28;20235;-47
2022/01/05 18:32:47;;;;;;;16.98;6.70;;;3.10;89.10;;;;;;5038750;28;20042;-48
2022/01/05 18:35:14;;;;;;;18.08;5.80;;;3.10;89.30;;;;;;5035113;28;20069;-49
2022/01/05 18:37:41;;;;;;;23.08;8.15;;;3.10;89.40;;;;;;5034929;28;20100;-50
2022/01/05 18:40:07;;;;;;;20.45;11.40;;;3.10;89.40;;;;;;5034760;28;20405;-48
2022/01/05 18:42:35;;;;;;;25.73;13.10;;;3.10;89.80;;;;;;5034807;28;20046;-52
2022/01/05 18:45:02;;;;;;;27.10;12.60;;;3.00;89.80;;;;;;5038887;28;20048;-50
2022/01/05 18:47:28;;;;;;;26.77;11.63;;;3.10;90.00;;;;;;5034802;28;20440;-48
2022/01/05 18:49:55;;;;;;;21.92;7.70;;;3.00;90.00;;;;;;5028733;28;20400;-52
2022/01/05 18:52:22;;;;;;;14.52;6.82;;;3.00;90.00;;;;;;5028245;28;20049;-46
2022/01/05 18:54:49;;;;;;;14.73;6.63;;;3.00;90.10;;;;;;5034182;28;20480;-47
2022/01/05 18:57:16;;;;;;;53.00;19.33;;;3.00;90.10;;;;;;5033437;28;20046;-47
2022/01/05 18:59:42;;;;;;;103.43;35.50;;;2.90;90.20;;;;;;5034668;28;20492;-52
2022/01/05 19:02:09;;;;;;;133.77;44.38;;;2.90;90.20;;;;;;5034550;28;20033;-42
2022/01/05 19:04:36;;;;;;;82.60;29.38;;;2.90;90.30;;;;;;5038478;28;20125;-50
2022/01/05 19:07:04;;;;;;;66.22;23.73;;;2.90;90.40;;;;;;5034120;28;20045;-47
2022/01/05 19:09:30;;;;;;;35.95;12.07;;;2.90;90.40;;;;;;5033408;28;20128;-48
2022/01/05 19:11:57;;;;;;;22.67;8.98;;;2.90;90.50;;;;;;5034208;28;20033;-49
2022/01/05 19:14:24;;;;;;;22.38;8.18;;;2.80;90.50;;;;;;5036542;28;20068;-45
2022/01/05 19:16:51;;;;;;;18.52;7.50;;;2.90;90.60;;;;;;5032902;28;20037;-46
2022/01/05 19:19:21;;;;;;;20.30;8.32;;;2.90;90.70;;;;;;5035863;28;20044;-52
2022/01/05 19:21:47;;;;;;;24.30;7.00;;;2.90;90.70;;;;;;5035021;28;20044;-49
2022/01/05 19:24:14;;;;;;;18.35;7.40;;;2.90;90.80;;;;;;5033969;28;20156;-45
2022/01/05 19:26:41;;;;;;;22.77;8.40;;;2.80;90.70;;;;;;5033527;28;20446;-49
2022/01/05 19:29:08;;;;;;;25.63;10.70;;;2.80;90.80;;;;;;5035527;28;20400;-47
2022/01/05 19:31:35;;;;;;;27.75;11.70;;;2.80;90.80;;;;;;5033490;28;20080;-47
2022/01/05 19:34:01;;;;;;;27.10;11.40;;;2.80;90.80;;;;;;5033613;28;20528;-47
2022/01/05 19:36:28;;;;;;;33.15;10.85;;;2.80;90.80;;;;;;5033384;28;20061;-47
2022/01/05 19:38:56;;;;;;;29.20;13.93;;;2.80;90.90;;;;;;5032828;28;20572;-51
2022/01/05 19:41:22;;;;;;;26.88;11.60;;;2.90;90.80;;;;;;5033488;28;20104;-48
2022/01/05 19:43:49;;;;;;;25.33;10.75;;;2.90;90.70;;;;;;5033437;28;20103;-49
2022/01/05 19:46:16;;;;;;;20.42;9.98;;;2.90;90.70;;;;;;5033257;28;20046;-47
2022/01/05 19:48:43;;;;;;;23.48;10.75;;;2.90;90.80;;;;;;5033534;28;20045;-47
2022/01/05 19:51:16;;;;;;;17.92;8.10;;;3.00;90.70;;;;;;5033610;28;20095;-52
2022/01/05 19:53:52;;;;;;;17.90;7.47;;;3.00;90.90;;;;;;5033038;28;20049;-49
2022/01/05 19:56:25;;;;;;;;;;;3.00;90.60;;;;;;5034141;28;20049;-51
2022/01/05 19:58:54;;;;;;;20.50;7.80;;;3.10;90.60;;;;;;5033308;28;20012;-49
2022/01/05 20:01:22;;;;;;;20.65;8.50;;;3.10;90.60;;;;;;5026770;28;20397;-48
2022/01/05 20:03:49;;;;;;;22.23;10.85;;;3.20;90.60;;;;;;5033120;28;20041;-51
2022/01/05 20:06:16;;;;;;;26.05;10.45;;;3.20;90.50;;;;;;5033137;28;20042;-48
2022/01/05 20:08:43;;;;;;;23.77;10.75;;;3.30;90.50;;;;;;5033012;28;20037;-51
2022/01/05 20:11:10;;;;;;;25.48;10.88;;;3.30;90.40;;;;;;5032958;28;20443;-50
2022/01/05 20:13:37;;;;;;;21.83;11.20;;;3.20;90.40;;;;;;5031540;28;20049;-47
2022/01/05 20:16:04;;;;;;;25.95;10.75;;;3.30;90.40;;;;;;5032692;28;20572;-47
2022/01/05 20:18:30;;;;;;;22.42;9.93;;;3.20;90.50;;;;;;5027925;28;20159;-51
2022/01/05 20:20:57;;;;;;;28.90;10.25;;;3.20;90.50;;;;;;5026795;28;20052;-51
2022/01/05 20:23:25;;;;;;;26.23;10.23;;;3.20;90.50;;;;;;5032717;28;20572;-45
2022/01/05 20:25:52;;;;;;;25.90;11.10;;;3.20;90.70;;;;;;5039153;28;20147;-51
2022/01/05 20:28:19;;;;;;;29.23;12.25;;;3.20;90.60;;;;;;5026088;28;20473;-52
2022/01/05 20:30:46;;;;;;;27.70;9.82;;;3.10;90.70;;;;;;5032556;28;20037;-49
2022/01/05 20:33:13;;;;;;;15.57;7.75;;;3.10;90.70;;;;;;5032659;28;20041;-51
2022/01/05 20:35:39;;;;;;;18.60;8.00;;;3.00;90.90;;;;;;5032567;28;20049;-49
2022/01/05 20:38:06;;;;;;;14.95;8.05;;;2.90;90.90;;;;;;5032413;28;20037;-53
2022/01/05 20:40:33;;;;;;;20.80;8.00;;;2.90;91.00;;;;;;5032520;28;20048;-48
2022/01/05 20:43:00;;;;;;;17.42;7.55;;;2.90;91.10;;;;;;5032189;28;20136;-50
2022/01/05 20:45:27;;;;;;;16.60;7.38;;;2.90;91.20;;;;;;5036372;28;20111;-47
2022/01/05 20:47:54;;;;;;;18.80;8.48;;;2.90;91.40;;;;;;5032431;28;20485;-45
2022/01/05 20:50:20;;;;;;;22.15;8.77;;;2.80;91.30;;;;;;5031617;28;20042;-44
2022/01/05 20:52:47;;;;;;;20.58;7.97;;;2.80;91.30;;;;;;5032083;28;20453;-46
2022/01/05 20:55:14;;;;;;;17.85;7.82;;;2.80;91.40;;;;;;5034761;28;20112;-48
2022/01/05 20:57:45;;;;;;;19.98;8.27;;;2.80;91.40;;;;;;5032135;28;20057;-49
2022/01/05 21:00:11;;;;;;;26.45;8.93;;;2.80;91.40;;;;;;5033944;28;20373;-52
2022/01/05 21:02:38;;;;;;;32.13;11.10;;;2.80;91.40;;;;;;5033181;28;20075;-50
2022/01/05 21:05:07;;;;;;;29.42;10.48;;;2.80;91.40;;;;;;5032059;28;20496;-48
2022/01/05 21:07:34;;;;;;;29.65;11.07;;;2.70;91.40;;;;;;5036682;28;20046;-51
2022/01/05 21:10:01;;;;;;;24.60;11.43;;;2.70;91.50;;;;;;5032571;28;20042;-52
2022/01/05 21:12:27;;;;;;;22.35;9.68;;;2.70;91.60;;;;;;5032372;28;20524;-49
2022/01/05 21:14:54;;;;;;;32.70;9.15;;;2.60;91.60;;;;;;5038024;28;20038;-56
2022/01/05 21:17:21;;;;;;;21.83;8.68;;;2.60;91.70;;;;;;5032397;28;20515;-45
2022/01/05 21:19:48;;;;;;;17.83;7.78;;;2.50;91.60;;;;;;5035636;28;20045;-49
2022/01/05 21:22:15;;;;;;;24.20;8.40;;;2.50;91.70;;;;;;5031133;28;20049;-48
2022/01/05 21:24:45;;;;;;;17.02;8.55;;;2.40;91.80;;;;;;5033986;28;20123;-46
2022/01/05 21:27:12;;;;;;;17.48;8.93;;;2.40;92.00;;;;;;5030897;28;20041;-51
2022/01/05 21:29:39;;;;;;;21.15;9.18;;;2.40;92.00;;;;;;5037455;28;20124;-49
2022/01/05 21:32:06;;;;;;;21.20;8.73;;;2.40;92.00;;;;;;5032300;28;20060;-49
2022/01/05 21:34:33;;;;;;;22.98;8.35;;;2.40;92.10;;;;;;5032441;28;20038;-52
2022/01/05 21:36:59;;;;;;;21.88;8.63;;;2.40;92.20;;;;;;5032296;28;20051;-50
2022/01/05 21:39:26;;;;;;;20.23;8.38;;;2.30;92.30;;;;;;5032209;28;20041;-48
2022/01/05 21:41:53;;;;;;;23.85;9.75;;;2.30;92.20;;;;;;5035487;28;20044;-47
2022/01/05 21:44:20;;;;;;;24.05;9.13;;;2.30;92.50;;;;;;5034380;28;20041;-52
2022/01/05 21:46:47;;;;;;;20.77;8.82;;;2.30;92.40;;;;;;5032120;28;20037;-50
2022/01/05 21:49:14;;;;;;;24.15;8.95;;;2.30;92.40;;;;;;5032202;28;20485;-47
2022/01/05 21:51:41;;;;;;;26.33;9.23;;;2.30;92.40;;;;;;5032215;28;20042;-52